sensor_id;sensor_type;location;lat;lon;timestamp;P1;durP1;ratioP1;P2;durP2;ratioP2
11500;SDS011;5807;51.606;7.624;2022-12-10T00:01:13;64.20;;;29.87;;
11500;SDS011;5807;51.606;7.624;2022-12-10T00:03:42;55.90;;;29.83;;
11500;SDS011;5807;51.606;7.624;2022-12-10T00:06:10;62.97;;;32.60;;
11500;SDS011;5807;51.606;7.624;2022-12-10T00:08:38;59.03;;;30.87;;
11500;SDS011;5807;51.606;7.624;2022-12-10T00:11:06;55.73;;;29.57;;
11500;SDS011;5807;51.606;7.624;2022-12-10T00:13:35;62.53;;;31.90;;
11500;SDS011;5807;51.606;7.624;2022-12-10T00:16:03;64.40;;;31.30;;
11500;SDS011;5807;51.606;7.624;2022-12-10T00:18:32;61.13;;;31.17;;
11500;SDS011;5807;51.606;7.624;2022-12-10T00:21:03;59.77;;;31.50;;
11500;SDS011;5807;51.606;7.624;2022-12-10T00:23:31;60.43;;;28.97;;
11500;SDS011;5807;51.606;7.624;2022-12-10T00:28:50;55.57;;;29.90;;
11500;SDS011;5807;51.606;7.624;2022-12-10T00:31:19;60.90;;;32.43;;
11500;SDS011;5807;51.606;7.624;2022-12-10T00:33:47;60.87;;;31.03;;
11500;SDS011;5807;51.606;7.624;2022-12-10T00:36:16;65.63;;;31.20;;
11500;SDS011;5807;51.606;7.624;2022-12-10T00:38:46;64.63;;;30.67;;
11500;SDS011;5807;51.606;7.624;2022-12-10T00:41:14;61.10;;;31.10;;
11500;SDS011;5807;51.606;7.624;2022-12-10T00:43:42;72.90;;;33.03;;
11500;SDS011;5807;51.606;7.624;2022-12-10T00:46:10;71.40;;;33.00;;
11500;SDS011;5807;51.606;7.624;2022-12-10T00:48:37;67.60;;;32.60;;
11500;SDS011;5807;51.606;7.624;2022-12-10T00:51:06;62.27;;;30.87;;
11500;SDS011;5807;51.606;7.624;2022-12-10T00:53:36;64.87;;;33.60;;
11500;SDS011;5807;51.606;7.624;2022-12-10T00:56:05;70.47;;;33.67;;
11500;SDS011;5807;51.606;7.624;2022-12-10T00:58:33;69.30;;;34.40;;
11500;SDS011;5807;51.606;7.624;2022-12-10T01:01:09;65.27;;;34.30;;
11500;SDS011;5807;51.606;7.624;2022-12-10T01:03:37;68.27;;;34.60;;
11500;SDS011;5807;51.606;7.624;2022-12-10T01:06:09;74.60;;;38.47;;
11500;SDS011;5807;51.606;7.624;2022-12-10T01:08:39;77.83;;;39.57;;
11500;SDS011;5807;51.606;7.624;2022-12-10T01:11:06;67.17;;;36.13;;
11500;SDS011;5807;51.606;7.624;2022-12-10T01:13:34;73.47;;;38.40;;
11500;SDS011;5807;51.606;7.624;2022-12-10T01:16:02;73.70;;;36.60;;
11500;SDS011;5807;51.606;7.624;2022-12-10T01:18:29;68.90;;;37.23;;
11500;SDS011;5807;51.606;7.624;2022-12-10T01:20:59;71.07;;;36.33;;
11500;SDS011;5807;51.606;7.624;2022-12-10T01:23:27;80.87;;;37.03;;
11500;SDS011;5807;51.606;7.624;2022-12-10T01:25:59;76.70;;;36.43;;
11500;SDS011;5807;51.606;7.624;2022-12-10T01:28:28;75.00;;;37.70;;
11500;SDS011;5807;51.606;7.624;2022-12-10T01:30:55;76.57;;;40.03;;
11500;SDS011;5807;51.606;7.624;2022-12-10T01:33:25;76.67;;;39.10;;
11500;SDS011;5807;51.606;7.624;2022-12-10T01:35:52;75.83;;;39.10;;
11500;SDS011;5807;51.606;7.624;2022-12-10T01:38:19;79.20;;;39.47;;
11500;SDS011;5807;51.606;7.624;2022-12-10T01:40:46;73.50;;;38.40;;
11500;SDS011;5807;51.606;7.624;2022-12-10T01:43:15;80.13;;;40.30;;
11500;SDS011;5807;51.606;7.624;2022-12-10T01:45:41;89.47;;;42.67;;
11500;SDS011;5807;51.606;7.624;2022-12-10T01:48:08;83.50;;;41.57;;
11500;SDS011;5807;51.606;7.624;2022-12-10T01:50:35;91.50;;;45.17;;
11500;SDS011;5807;51.606;7.624;2022-12-10T01:53:02;86.93;;;45.50;;
11500;SDS011;5807;51.606;7.624;2022-12-10T01:55:41;91.30;;;46.50;;
11500;SDS011;5807;51.606;7.624;2022-12-10T01:58:11;95.00;;;46.63;;
11500;SDS011;5807;51.606;7.624;2022-12-10T02:00:43;105.60;;;47.93;;
11500;SDS011;5807;51.606;7.624;2022-12-10T02:03:19;99.93;;;50.00;;
11500;SDS011;5807;51.606;7.624;2022-12-10T02:05:53;91.03;;;44.63;;
11500;SDS011;5807;51.606;7.624;2022-12-10T02:08:28;78.47;;;38.80;;
11500;SDS011;5807;51.606;7.624;2022-12-10T02:11:06;49.03;;;25.97;;
11500;SDS011;5807;51.606;7.624;2022-12-10T02:13:42;41.93;;;24.70;;
11500;SDS011;5807;51.606;7.624;2022-12-10T02:16:14;50.07;;;24.83;;
11500;SDS011;5807;51.606;7.624;2022-12-10T02:18:45;44.67;;;21.80;;
11500;SDS011;5807;51.606;7.624;2022-12-10T02:21:18;79.60;;;38.33;;
11500;SDS011;5807;51.606;7.624;2022-12-10T02:23:49;79.77;;;39.20;;
11500;SDS011;5807;51.606;7.624;2022-12-10T02:26:22;81.50;;;40.47;;
11500;SDS011;5807;51.606;7.624;2022-12-10T02:28:51;90.23;;;41.10;;
11500;SDS011;5807;51.606;7.624;2022-12-10T02:31:31;86.67;;;43.10;;
11500;SDS011;5807;51.606;7.624;2022-12-10T02:34:00;99.27;;;46.40;;
11500;SDS011;5807;51.606;7.624;2022-12-10T02:36:31;96.13;;;47.83;;
11500;SDS011;5807;51.606;7.624;2022-12-10T02:39:03;88.73;;;46.17;;
11500;SDS011;5807;51.606;7.624;2022-12-10T02:41:37;83.63;;;42.13;;
11500;SDS011;5807;51.606;7.624;2022-12-10T02:47:00;61.23;;;31.03;;
11500;SDS011;5807;51.606;7.624;2022-12-10T02:49:28;55.30;;;30.27;;
11500;SDS011;5807;51.606;7.624;2022-12-10T02:51:57;44.33;;;25.40;;
11500;SDS011;5807;51.606;7.624;2022-12-10T02:54:34;50.83;;;25.57;;
11500;SDS011;5807;51.606;7.624;2022-12-10T02:57:18;58.10;;;28.67;;
11500;SDS011;5807;51.606;7.624;2022-12-10T03:00:03;52.87;;;28.00;;
11500;SDS011;5807;51.606;7.624;2022-12-10T03:02:34;73.83;;;36.93;;
11500;SDS011;5807;51.606;7.624;2022-12-10T03:05:19;80.83;;;37.73;;
11500;SDS011;5807;51.606;7.624;2022-12-10T03:07:54;80.43;;;39.97;;
11500;SDS011;5807;51.606;7.624;2022-12-10T03:10:26;85.73;;;39.63;;
11500;SDS011;5807;51.606;7.624;2022-12-10T03:12:57;81.70;;;42.23;;
11500;SDS011;5807;51.606;7.624;2022-12-10T03:15:28;78.67;;;41.83;;
11500;SDS011;5807;51.606;7.624;2022-12-10T03:17:59;80.07;;;40.87;;
11500;SDS011;5807;51.606;7.624;2022-12-10T03:20:29;90.53;;;42.70;;
11500;SDS011;5807;51.606;7.624;2022-12-10T03:22:58;89.17;;;42.13;;
11500;SDS011;5807;51.606;7.624;2022-12-10T03:25:26;85.40;;;43.20;;
11500;SDS011;5807;51.606;7.624;2022-12-10T03:27:56;82.77;;;40.90;;
11500;SDS011;5807;51.606;7.624;2022-12-10T03:30:25;82.77;;;42.20;;
11500;SDS011;5807;51.606;7.624;2022-12-10T03:32:53;90.10;;;44.27;;
11500;SDS011;5807;51.606;7.624;2022-12-10T03:35:21;76.43;;;40.40;;
11500;SDS011;5807;51.606;7.624;2022-12-10T03:37:50;83.70;;;41.33;;
11500;SDS011;5807;51.606;7.624;2022-12-10T03:40:20;83.90;;;42.10;;
11500;SDS011;5807;51.606;7.624;2022-12-10T03:42:49;86.60;;;40.43;;
11500;SDS011;5807;51.606;7.624;2022-12-10T03:45:16;82.40;;;39.57;;
11500;SDS011;5807;51.606;7.624;2022-12-10T03:47:43;79.67;;;37.37;;
11500;SDS011;5807;51.606;7.624;2022-12-10T03:50:11;67.83;;;35.47;;
11500;SDS011;5807;51.606;7.624;2022-12-10T03:52:41;74.40;;;34.83;;
11500;SDS011;5807;51.606;7.624;2022-12-10T03:55:08;60.80;;;34.00;;
11500;SDS011;5807;51.606;7.624;2022-12-10T03:57:35;70.23;;;34.33;;
11500;SDS011;5807;51.606;7.624;2022-12-10T04:00:02;70.37;;;34.10;;
11500;SDS011;5807;51.606;7.624;2022-12-10T04:02:30;69.50;;;34.97;;
11500;SDS011;5807;51.606;7.624;2022-12-10T04:05:16;73.87;;;36.00;;
11500;SDS011;5807;51.606;7.624;2022-12-10T04:07:43;52.27;;;28.07;;
11500;SDS011;5807;51.606;7.624;2022-12-10T04:10:10;53.93;;;27.00;;
11500;SDS011;5807;51.606;7.624;2022-12-10T04:12:37;44.43;;;23.27;;
11500;SDS011;5807;51.606;7.624;2022-12-10T04:15:04;46.60;;;25.40;;
11500;SDS011;5807;51.606;7.624;2022-12-10T04:17:50;42.30;;;23.00;;
11500;SDS011;5807;51.606;7.624;2022-12-10T04:20:19;38.23;;;21.37;;
11500;SDS011;5807;51.606;7.624;2022-12-10T04:23:03;45.50;;;23.80;;
11500;SDS011;5807;51.606;7.624;2022-12-10T04:25:47;41.47;;;23.27;;
11500;SDS011;5807;51.606;7.624;2022-12-10T04:28:31;40.27;;;23.67;;
11500;SDS011;5807;51.606;7.624;2022-12-10T04:30:58;42.10;;;25.00;;
11500;SDS011;5807;51.606;7.624;2022-12-10T04:33:25;47.33;;;25.77;;
11500;SDS011;5807;51.606;7.624;2022-12-10T04:35:53;48.70;;;25.73;;
11500;SDS011;5807;51.606;7.624;2022-12-10T04:38:20;47.97;;;25.97;;
11500;SDS011;5807;51.606;7.624;2022-12-10T04:40:47;49.80;;;25.90;;
11500;SDS011;5807;51.606;7.624;2022-12-10T04:43:14;40.30;;;24.40;;
11500;SDS011;5807;51.606;7.624;2022-12-10T04:45:40;37.20;;;21.87;;
11500;SDS011;5807;51.606;7.624;2022-12-10T04:48:07;34.87;;;19.17;;
11500;SDS011;5807;51.606;7.624;2022-12-10T04:50:34;35.37;;;19.00;;
11500;SDS011;5807;51.606;7.624;2022-12-10T04:53:02;30.40;;;18.73;;
11500;SDS011;5807;51.606;7.624;2022-12-10T04:55:30;33.53;;;18.00;;
11500;SDS011;5807;51.606;7.624;2022-12-10T04:57:56;31.37;;;16.77;;
11500;SDS011;5807;51.606;7.624;2022-12-10T05:00:23;30.63;;;19.03;;
11500;SDS011;5807;51.606;7.624;2022-12-10T05:02:50;30.90;;;16.37;;
11500;SDS011;5807;51.606;7.624;2022-12-10T05:05:18;18.93;;;13.07;;
11500;SDS011;5807;51.606;7.624;2022-12-10T05:07:45;31.27;;;17.90;;
11500;SDS011;5807;51.606;7.624;2022-12-10T05:10:14;26.80;;;15.50;;
11500;SDS011;5807;51.606;7.624;2022-12-10T05:12:40;25.63;;;16.50;;
11500;SDS011;5807;51.606;7.624;2022-12-10T05:15:08;24.17;;;14.87;;
11500;SDS011;5807;51.606;7.624;2022-12-10T05:17:36;20.30;;;12.40;;
11500;SDS011;5807;51.606;7.624;2022-12-10T05:20:03;27.77;;;16.70;;
11500;SDS011;5807;51.606;7.624;2022-12-10T05:22:30;24.27;;;14.63;;
11500;SDS011;5807;51.606;7.624;2022-12-10T05:25:16;25.70;;;17.33;;
11500;SDS011;5807;51.606;7.624;2022-12-10T05:27:43;21.93;;;15.87;;
11500;SDS011;5807;51.606;7.624;2022-12-10T05:30:10;26.40;;;17.60;;
11500;SDS011;5807;51.606;7.624;2022-12-10T05:32:37;30.33;;;16.80;;
11500;SDS011;5807;51.606;7.624;2022-12-10T05:35:06;23.77;;;14.97;;
11500;SDS011;5807;51.606;7.624;2022-12-10T05:37:33;20.27;;;13.73;;
11500;SDS011;5807;51.606;7.624;2022-12-10T05:40:00;21.07;;;14.47;;
11500;SDS011;5807;51.606;7.624;2022-12-10T05:42:28;19.97;;;13.93;;
11500;SDS011;5807;51.606;7.624;2022-12-10T05:44:55;19.57;;;13.53;;
11500;SDS011;5807;51.606;7.624;2022-12-10T05:47:22;25.87;;;14.23;;
11500;SDS011;5807;51.606;7.624;2022-12-10T05:49:49;15.57;;;11.33;;
11500;SDS011;5807;51.606;7.624;2022-12-10T05:52:16;19.57;;;14.13;;
11500;SDS011;5807;51.606;7.624;2022-12-10T05:54:43;22.03;;;14.97;;
11500;SDS011;5807;51.606;7.624;2022-12-10T05:57:10;19.33;;;13.47;;
11500;SDS011;5807;51.606;7.624;2022-12-10T05:59:38;19.37;;;12.30;;
11500;SDS011;5807;51.606;7.624;2022-12-10T06:02:05;20.53;;;13.80;;
11500;SDS011;5807;51.606;7.624;2022-12-10T06:04:50;21.53;;;13.77;;
11500;SDS011;5807;51.606;7.624;2022-12-10T06:07:17;18.90;;;14.07;;
11500;SDS011;5807;51.606;7.624;2022-12-10T06:09:44;17.83;;;12.87;;
11500;SDS011;5807;51.606;7.624;2022-12-10T06:12:10;23.43;;;13.33;;
11500;SDS011;5807;51.606;7.624;2022-12-10T06:14:39;21.73;;;13.97;;
11500;SDS011;5807;51.606;7.624;2022-12-10T06:17:06;18.00;;;14.23;;
11500;SDS011;5807;51.606;7.624;2022-12-10T06:19:33;16.27;;;12.03;;
11500;SDS011;5807;51.606;7.624;2022-12-10T06:22:00;20.53;;;13.80;;
11500;SDS011;5807;51.606;7.624;2022-12-10T06:24:27;15.83;;;11.57;;
11500;SDS011;5807;51.606;7.624;2022-12-10T06:26:55;16.70;;;12.33;;
11500;SDS011;5807;51.606;7.624;2022-12-10T06:29:22;18.10;;;12.20;;
11500;SDS011;5807;51.606;7.624;2022-12-10T06:31:59;20.00;;;13.07;;
11500;SDS011;5807;51.606;7.624;2022-12-10T06:34:26;21.20;;;14.00;;
11500;SDS011;5807;51.606;7.624;2022-12-10T06:36:53;20.83;;;12.97;;
11500;SDS011;5807;51.606;7.624;2022-12-10T06:39:20;21.07;;;13.70;;
11500;SDS011;5807;51.606;7.624;2022-12-10T06:41:46;22.93;;;14.07;;
11500;SDS011;5807;51.606;7.624;2022-12-10T06:44:13;21.33;;;13.77;;
11500;SDS011;5807;51.606;7.624;2022-12-10T06:46:40;21.73;;;15.07;;
11500;SDS011;5807;51.606;7.624;2022-12-10T06:49:09;23.80;;;15.20;;
11500;SDS011;5807;51.606;7.624;2022-12-10T06:51:36;19.20;;;14.30;;
11500;SDS011;5807;51.606;7.624;2022-12-10T06:54:04;20.03;;;14.87;;
11500;SDS011;5807;51.606;7.624;2022-12-10T06:56:31;19.13;;;13.47;;
11500;SDS011;5807;51.606;7.624;2022-12-10T06:59:10;21.37;;;14.70;;
11500;SDS011;5807;51.606;7.624;2022-12-10T07:01:37;17.40;;;12.50;;
11500;SDS011;5807;51.606;7.624;2022-12-10T07:04:05;20.50;;;14.27;;
11500;SDS011;5807;51.606;7.624;2022-12-10T07:06:33;16.07;;;12.60;;
11500;SDS011;5807;51.606;7.624;2022-12-10T07:09:00;20.93;;;13.07;;
11500;SDS011;5807;51.606;7.624;2022-12-10T07:11:27;23.63;;;14.03;;
11500;SDS011;5807;51.606;7.624;2022-12-10T07:13:55;17.77;;;12.57;;
11500;SDS011;5807;51.606;7.624;2022-12-10T07:16:23;21.30;;;14.47;;
11500;SDS011;5807;51.606;7.624;2022-12-10T07:18:51;21.30;;;15.30;;
11500;SDS011;5807;51.606;7.624;2022-12-10T07:21:20;23.17;;;15.87;;
11500;SDS011;5807;51.606;7.624;2022-12-10T07:24:01;24.00;;;14.77;;
11500;SDS011;5807;51.606;7.624;2022-12-10T07:26:30;21.30;;;15.60;;
11500;SDS011;5807;51.606;7.624;2022-12-10T07:28:59;21.63;;;14.60;;
11500;SDS011;5807;51.606;7.624;2022-12-10T07:31:27;22.67;;;14.00;;
11500;SDS011;5807;51.606;7.624;2022-12-10T07:33:54;23.40;;;14.30;;
11500;SDS011;5807;51.606;7.624;2022-12-10T07:36:23;18.60;;;13.97;;
11500;SDS011;5807;51.606;7.624;2022-12-10T07:38:50;20.80;;;15.00;;
11500;SDS011;5807;51.606;7.624;2022-12-10T07:41:20;20.73;;;14.30;;
11500;SDS011;5807;51.606;7.624;2022-12-10T07:43:49;17.63;;;13.13;;
11500;SDS011;5807;51.606;7.624;2022-12-10T07:46:17;20.03;;;12.80;;
11500;SDS011;5807;51.606;7.624;2022-12-10T07:48:47;20.73;;;13.93;;
11500;SDS011;5807;51.606;7.624;2022-12-10T07:51:16;18.70;;;13.17;;
11500;SDS011;5807;51.606;7.624;2022-12-10T07:53:44;18.77;;;13.47;;
11500;SDS011;5807;51.606;7.624;2022-12-10T07:56:11;20.93;;;12.83;;
11500;SDS011;5807;51.606;7.624;2022-12-10T07:58:42;18.30;;;11.87;;
11500;SDS011;5807;51.606;7.624;2022-12-10T08:01:11;20.80;;;13.90;;
11500;SDS011;5807;51.606;7.624;2022-12-10T08:03:41;23.83;;;14.10;;
11500;SDS011;5807;51.606;7.624;2022-12-10T08:06:09;21.40;;;13.53;;
11500;SDS011;5807;51.606;7.624;2022-12-10T08:08:38;19.17;;;13.67;;
11500;SDS011;5807;51.606;7.624;2022-12-10T08:11:05;21.03;;;14.27;;
11500;SDS011;5807;51.606;7.624;2022-12-10T08:13:36;25.93;;;15.93;;
11500;SDS011;5807;51.606;7.624;2022-12-10T08:16:05;22.90;;;14.20;;
11500;SDS011;5807;51.606;7.624;2022-12-10T08:18:34;21.90;;;14.53;;
11500;SDS011;5807;51.606;7.624;2022-12-10T08:21:03;20.13;;;13.50;;
11500;SDS011;5807;51.606;7.624;2022-12-10T08:23:30;23.70;;;14.50;;
11500;SDS011;5807;51.606;7.624;2022-12-10T08:25:57;23.53;;;14.50;;
11500;SDS011;5807;51.606;7.624;2022-12-10T08:28:24;21.67;;;14.70;;
11500;SDS011;5807;51.606;7.624;2022-12-10T08:30:51;25.90;;;15.47;;
11500;SDS011;5807;51.606;7.624;2022-12-10T08:33:19;24.33;;;15.67;;
11500;SDS011;5807;51.606;7.624;2022-12-10T08:35:46;30.23;;;16.40;;
11500;SDS011;5807;51.606;7.624;2022-12-10T08:38:13;29.07;;;17.33;;
11500;SDS011;5807;51.606;7.624;2022-12-10T08:40:40;29.70;;;16.57;;
11500;SDS011;5807;51.606;7.624;2022-12-10T08:43:12;27.57;;;17.93;;
11500;SDS011;5807;51.606;7.624;2022-12-10T08:45:39;31.10;;;17.93;;
11500;SDS011;5807;51.606;7.624;2022-12-10T08:48:06;27.20;;;17.53;;
11500;SDS011;5807;51.606;7.624;2022-12-10T08:50:34;29.63;;;19.47;;
11500;SDS011;5807;51.606;7.624;2022-12-10T08:53:02;28.70;;;18.20;;
11500;SDS011;5807;51.606;7.624;2022-12-10T08:55:29;25.93;;;17.23;;
11500;SDS011;5807;51.606;7.624;2022-12-10T09:00:43;27.30;;;16.97;;
11500;SDS011;5807;51.606;7.624;2022-12-10T09:03:10;24.13;;;15.93;;
11500;SDS011;5807;51.606;7.624;2022-12-10T09:05:45;25.13;;;17.47;;
11500;SDS011;5807;51.606;7.624;2022-12-10T09:08:12;25.77;;;16.50;;
11500;SDS011;5807;51.606;7.624;2022-12-10T09:10:40;24.63;;;16.63;;
11500;SDS011;5807;51.606;7.624;2022-12-10T09:13:07;23.63;;;16.33;;
11500;SDS011;5807;51.606;7.624;2022-12-10T09:15:34;26.17;;;15.67;;
11500;SDS011;5807;51.606;7.624;2022-12-10T09:18:01;20.87;;;15.93;;
11500;SDS011;5807;51.606;7.624;2022-12-10T09:20:28;27.13;;;16.17;;
11500;SDS011;5807;51.606;7.624;2022-12-10T09:22:58;23.43;;;16.67;;
11500;SDS011;5807;51.606;7.624;2022-12-10T09:25:25;22.77;;;14.67;;
11500;SDS011;5807;51.606;7.624;2022-12-10T09:27:52;21.70;;;15.13;;
11500;SDS011;5807;51.606;7.624;2022-12-10T09:30:19;25.03;;;15.67;;
11500;SDS011;5807;51.606;7.624;2022-12-10T09:32:46;22.27;;;14.63;;
11500;SDS011;5807;51.606;7.624;2022-12-10T09:35:13;24.07;;;16.50;;
11500;SDS011;5807;51.606;7.624;2022-12-10T09:37:40;17.80;;;12.70;;
11500;SDS011;5807;51.606;7.624;2022-12-10T09:40:08;21.43;;;14.27;;
11500;SDS011;5807;51.606;7.624;2022-12-10T09:42:38;25.33;;;14.20;;
11500;SDS011;5807;51.606;7.624;2022-12-10T09:45:16;20.07;;;13.90;;
11500;SDS011;5807;51.606;7.624;2022-12-10T09:47:49;19.27;;;13.43;;
11500;SDS011;5807;51.606;7.624;2022-12-10T09:50:24;21.00;;;14.53;;
11500;SDS011;5807;51.606;7.624;2022-12-10T09:52:54;20.77;;;14.13;;
11500;SDS011;5807;51.606;7.624;2022-12-10T09:55:26;18.17;;;12.90;;
11500;SDS011;5807;51.606;7.624;2022-12-10T09:57:58;18.33;;;11.47;;
11500;SDS011;5807;51.606;7.624;2022-12-10T10:00:29;19.40;;;12.90;;
11500;SDS011;5807;51.606;7.624;2022-12-10T10:03:00;18.83;;;13.37;;
11500;SDS011;5807;51.606;7.624;2022-12-10T10:05:28;16.63;;;12.97;;
11500;SDS011;5807;51.606;7.624;2022-12-10T10:07:58;19.17;;;13.57;;
11500;SDS011;5807;51.606;7.624;2022-12-10T10:10:29;16.53;;;12.83;;
11500;SDS011;5807;51.606;7.624;2022-12-10T10:13:00;16.90;;;11.87;;
11500;SDS011;5807;51.606;7.624;2022-12-10T10:15:39;16.03;;;12.17;;
11500;SDS011;5807;51.606;7.624;2022-12-10T10:18:08;16.93;;;13.13;;
11500;SDS011;5807;51.606;7.624;2022-12-10T10:20:41;19.00;;;12.73;;
11500;SDS011;5807;51.606;7.624;2022-12-10T10:23:08;20.17;;;13.67;;
11500;SDS011;5807;51.606;7.624;2022-12-10T10:25:40;18.40;;;13.40;;
11500;SDS011;5807;51.606;7.624;2022-12-10T10:28:09;17.10;;;13.13;;
11500;SDS011;5807;51.606;7.624;2022-12-10T10:30:39;21.07;;;13.30;;
11500;SDS011;5807;51.606;7.624;2022-12-10T10:33:09;15.90;;;11.80;;
11500;SDS011;5807;51.606;7.624;2022-12-10T10:35:41;22.10;;;13.53;;
11500;SDS011;5807;51.606;7.624;2022-12-10T10:40:48;19.00;;;13.33;;
11500;SDS011;5807;51.606;7.624;2022-12-10T10:43:19;20.23;;;14.13;;
11500;SDS011;5807;51.606;7.624;2022-12-10T10:45:49;20.30;;;12.93;;
11500;SDS011;5807;51.606;7.624;2022-12-10T10:48:19;17.97;;;13.03;;
11500;SDS011;5807;51.606;7.624;2022-12-10T10:50:48;18.30;;;12.40;;
11500;SDS011;5807;51.606;7.624;2022-12-10T10:53:20;16.20;;;11.83;;
11500;SDS011;5807;51.606;7.624;2022-12-10T10:55:55;19.17;;;12.20;;
11500;SDS011;5807;51.606;7.624;2022-12-10T10:58:25;18.53;;;12.13;;
11500;SDS011;5807;51.606;7.624;2022-12-10T11:00:53;17.57;;;12.63;;
11500;SDS011;5807;51.606;7.624;2022-12-10T11:03:25;22.77;;;13.30;;
11500;SDS011;5807;51.606;7.624;2022-12-10T11:05:53;17.70;;;12.40;;
11500;SDS011;5807;51.606;7.624;2022-12-10T11:08:23;22.23;;;14.40;;
11500;SDS011;5807;51.606;7.624;2022-12-10T11:10:56;20.97;;;13.50;;
11500;SDS011;5807;51.606;7.624;2022-12-10T11:13:27;19.40;;;13.07;;
11500;SDS011;5807;51.606;7.624;2022-12-10T11:15:57;26.70;;;16.30;;
11500;SDS011;5807;51.606;7.624;2022-12-10T11:18:30;20.77;;;12.93;;
11500;SDS011;5807;51.606;7.624;2022-12-10T11:21:00;17.97;;;12.43;;
11500;SDS011;5807;51.606;7.624;2022-12-10T11:23:35;18.07;;;12.80;;
11500;SDS011;5807;51.606;7.624;2022-12-10T11:29:19;17.43;;;11.73;;
11500;SDS011;5807;51.606;7.624;2022-12-10T11:32:02;21.40;;;13.67;;
11500;SDS011;5807;51.606;7.624;2022-12-10T11:34:40;19.63;;;12.67;;
11500;SDS011;5807;51.606;7.624;2022-12-10T11:37:17;18.90;;;13.67;;
11500;SDS011;5807;51.606;7.624;2022-12-10T11:39:56;18.30;;;13.17;;
11500;SDS011;5807;51.606;7.624;2022-12-10T11:42:36;20.40;;;13.67;;
11500;SDS011;5807;51.606;7.624;2022-12-10T11:45:13;20.30;;;12.70;;
11500;SDS011;5807;51.606;7.624;2022-12-10T11:47:48;19.03;;;13.00;;
11500;SDS011;5807;51.606;7.624;2022-12-10T11:50:32;20.07;;;12.93;;
11500;SDS011;5807;51.606;7.624;2022-12-10T11:53:09;20.47;;;12.83;;
11500;SDS011;5807;51.606;7.624;2022-12-10T11:55:45;15.83;;;11.30;;
11500;SDS011;5807;51.606;7.624;2022-12-10T11:58:28;16.33;;;12.67;;
11500;SDS011;5807;51.606;7.624;2022-12-10T12:01:14;24.40;;;14.73;;
11500;SDS011;5807;51.606;7.624;2022-12-10T12:03:54;34.03;;;19.90;;
11500;SDS011;5807;51.606;7.624;2022-12-10T12:06:35;34.20;;;20.10;;
11500;SDS011;5807;51.606;7.624;2022-12-10T12:09:15;37.03;;;21.30;;
11500;SDS011;5807;51.606;7.624;2022-12-10T12:11:50;33.73;;;20.73;;
11500;SDS011;5807;51.606;7.624;2022-12-10T12:14:29;34.27;;;20.87;;
11500;SDS011;5807;51.606;7.624;2022-12-10T12:17:00;30.73;;;19.80;;
11500;SDS011;5807;51.606;7.624;2022-12-10T12:19:32;34.33;;;21.47;;
11500;SDS011;5807;51.606;7.624;2022-12-10T12:22:05;34.70;;;21.40;;
11500;SDS011;5807;51.606;7.624;2022-12-10T12:24:38;37.27;;;21.10;;
11500;SDS011;5807;51.606;7.624;2022-12-10T12:27:10;37.47;;;22.40;;
11500;SDS011;5807;51.606;7.624;2022-12-10T12:29:45;37.63;;;21.60;;
11500;SDS011;5807;51.606;7.624;2022-12-10T12:32:17;37.10;;;21.17;;
11500;SDS011;5807;51.606;7.624;2022-12-10T12:34:49;36.83;;;23.07;;
11500;SDS011;5807;51.606;7.624;2022-12-10T12:37:23;43.63;;;22.90;;
11500;SDS011;5807;51.606;7.624;2022-12-10T12:39:58;42.67;;;24.97;;
11500;SDS011;5807;51.606;7.624;2022-12-10T12:42:29;37.73;;;23.57;;
11500;SDS011;5807;51.606;7.624;2022-12-10T12:45:03;38.70;;;22.80;;
11500;SDS011;5807;51.606;7.624;2022-12-10T12:47:39;42.97;;;23.90;;
11500;SDS011;5807;51.606;7.624;2022-12-10T12:50:16;36.27;;;22.53;;
11500;SDS011;5807;51.606;7.624;2022-12-10T12:52:52;40.07;;;23.47;;
11500;SDS011;5807;51.606;7.624;2022-12-10T12:55:22;34.07;;;21.07;;
11500;SDS011;5807;51.606;7.624;2022-12-10T12:57:53;35.90;;;21.50;;
11500;SDS011;5807;51.606;7.624;2022-12-10T13:00:30;37.10;;;21.47;;
11500;SDS011;5807;51.606;7.624;2022-12-10T13:03:05;39.40;;;24.03;;
11500;SDS011;5807;51.606;7.624;2022-12-10T13:05:43;39.33;;;23.90;;
11500;SDS011;5807;51.606;7.624;2022-12-10T13:08:23;39.20;;;22.10;;
11500;SDS011;5807;51.606;7.624;2022-12-10T13:10:52;41.20;;;23.33;;
11500;SDS011;5807;51.606;7.624;2022-12-10T13:13:23;34.57;;;23.17;;
11500;SDS011;5807;51.606;7.624;2022-12-10T13:15:55;36.00;;;21.70;;
11500;SDS011;5807;51.606;7.624;2022-12-10T13:18:44;36.80;;;22.80;;
11500;SDS011;5807;51.606;7.624;2022-12-10T13:21:29;39.30;;;23.93;;
11500;SDS011;5807;51.606;7.624;2022-12-10T13:24:08;42.90;;;22.60;;
11500;SDS011;5807;51.606;7.624;2022-12-10T13:26:36;39.57;;;22.27;;
11500;SDS011;5807;51.606;7.624;2022-12-10T13:29:27;35.33;;;22.47;;
11500;SDS011;5807;51.606;7.624;2022-12-10T13:31:55;37.67;;;22.73;;
11500;SDS011;5807;51.606;7.624;2022-12-10T13:34:32;36.70;;;22.23;;
11500;SDS011;5807;51.606;7.624;2022-12-10T13:39:59;35.43;;;22.47;;
11500;SDS011;5807;51.606;7.624;2022-12-10T13:42:38;36.50;;;22.40;;
11500;SDS011;5807;51.606;7.624;2022-12-10T13:45:25;38.27;;;23.50;;
11500;SDS011;5807;51.606;7.624;2022-12-10T13:47:54;40.97;;;24.00;;
11500;SDS011;5807;51.606;7.624;2022-12-10T13:50:44;36.27;;;23.80;;
11500;SDS011;5807;51.606;7.624;2022-12-10T13:53:16;35.77;;;23.47;;
11500;SDS011;5807;51.606;7.624;2022-12-10T13:55:53;39.00;;;21.50;;
11500;SDS011;5807;51.606;7.624;2022-12-10T13:58:26;34.87;;;20.93;;
11500;SDS011;5807;51.606;7.624;2022-12-10T14:01:09;38.20;;;23.40;;
11500;SDS011;5807;51.606;7.624;2022-12-10T14:03:46;36.23;;;23.13;;
11500;SDS011;5807;51.606;7.624;2022-12-10T14:06:26;30.57;;;20.37;;
11500;SDS011;5807;51.606;7.624;2022-12-10T14:08:59;33.97;;;21.90;;
11500;SDS011;5807;51.606;7.624;2022-12-10T14:11:30;37.20;;;21.07;;
11500;SDS011;5807;51.606;7.624;2022-12-10T14:14:00;33.77;;;21.70;;
11500;SDS011;5807;51.606;7.624;2022-12-10T14:16:29;35.33;;;21.27;;
11500;SDS011;5807;51.606;7.624;2022-12-10T14:18:59;35.13;;;21.77;;
11500;SDS011;5807;51.606;7.624;2022-12-10T14:21:28;38.57;;;21.93;;
11500;SDS011;5807;51.606;7.624;2022-12-10T14:23:59;41.90;;;24.90;;
11500;SDS011;5807;51.606;7.624;2022-12-10T14:26:26;34.63;;;21.93;;
11500;SDS011;5807;51.606;7.624;2022-12-10T14:28:56;29.93;;;19.57;;
11500;SDS011;5807;51.606;7.624;2022-12-10T14:31:25;25.93;;;16.43;;
11500;SDS011;5807;51.606;7.624;2022-12-10T14:33:57;31.93;;;18.70;;
11500;SDS011;5807;51.606;7.624;2022-12-10T14:36:27;28.53;;;16.67;;
11500;SDS011;5807;51.606;7.624;2022-12-10T14:38:57;28.63;;;17.37;;
11500;SDS011;5807;51.606;7.624;2022-12-10T14:41:26;26.53;;;16.73;;
11500;SDS011;5807;51.606;7.624;2022-12-10T14:43:55;29.97;;;19.27;;
11500;SDS011;5807;51.606;7.624;2022-12-10T14:46:28;27.07;;;19.37;;
11500;SDS011;5807;51.606;7.624;2022-12-10T14:48:57;28.43;;;17.70;;
11500;SDS011;5807;51.606;7.624;2022-12-10T14:51:24;29.07;;;18.37;;
11500;SDS011;5807;51.606;7.624;2022-12-10T14:53:54;34.80;;;19.40;;
11500;SDS011;5807;51.606;7.624;2022-12-10T14:56:23;31.03;;;18.90;;
11500;SDS011;5807;51.606;7.624;2022-12-10T14:58:55;49.27;;;21.27;;
11500;SDS011;5807;51.606;7.624;2022-12-10T15:01:28;31.70;;;19.70;;
11500;SDS011;5807;51.606;7.624;2022-12-10T15:03:59;33.33;;;19.63;;
11500;SDS011;5807;51.606;7.624;2022-12-10T15:06:32;30.77;;;19.10;;
11500;SDS011;5807;51.606;7.624;2022-12-10T15:09:02;31.30;;;19.67;;
11500;SDS011;5807;51.606;7.624;2022-12-10T15:11:31;28.43;;;18.10;;